Urbana, Iowa
Current Conditions -  °F | °C
As of 11:55 AM on Friday 21 Nov 2014 (Local Time) from KVTI Reporting Station
Clear Clear  
Wind Chill: 16°   Ceiling: Unl
Heat Index: 28°   Visibility: 10mi
Dew Point: 13°   Wind: 15mph
Humidity: 55%   Direction: 160°SSE
Pressure: 30.3"   Gusts: 22mph
Location:  42.22°N, 91.87°W
Report Text: KVTI 211755Z AUTO 16013G19KT 10SM CLR M02/M10 A3030 RMK AO2 T10231103 11023 21157
Loading
Personal Weather Stations






























Interactive Weather Map New forecast layout! Learn more

10-Day Weather Forecast

Advertisements
Track Severe Weather on mobile